Aeroporto :
LOGIN :

Iscrizione | Disclaimer

   EN    FR    IT 

 










Sommario :    VFR   VFR Marginale   IFR   IFR Intensivo   IFR Molto Intensivo
Visibilità : 
Base nubi : 
>= 8 km
>= 3000ft
5 / 8 km
1000 / 3000 ft
1500m / 5 km
500 / 1000 ft
800 / 1500m
200 / 500 ft
< 800m
< 200 ft
Simboli :   Temporali  Nebbia  Neve Forte  Precipitazioni Forti  Vento > 20 kt
SIGMETs :   Varie  Temporali  Ghiacco  Turbolenza  Onda orograficha  Ceneri Vulcaniche







- Altitudine del aeroporto : 40 ft
- Codice IATA : RMI


LIPR - Federico Fellini Int. Rimini

ULTIMO METAR :
  • 190850Z VRB01KT 5000 -RA BR SCT025 BKN070 16/14 Q1004

METARs OBSOLETI :
  • 190820Z VRB02KT 5000 BR SCT007 SCT030 BKN070 15/13 Q1004
  • 190750Z 05003KT 020V100 5000 -RA BR SCT007 SCT030 BKN070 15/13 Q1004
  • 190720Z 01003KT 340V040 5000 BR SCT006 SCT070 14/13 Q1004
  • 190650Z 01004KT 350V050 5000 BR FEW005 SCT070 14/13 Q1004
  • 190620Z VRB01KT 5000 BR FEW005 SCT070 14/13 Q1004

TAF TAF LIPR
Valido dal 19 a 09 ore il 19 a 18 ore UTC


190800Z 1909/1918 03008KT 8000 SCT015 BKN030
TEMPO 1911/1916 4000 TSRA
Nessun NOTAM noto per questo aeroporto.



MetMap, La meteo Aeronautica in un colpo d'occhio ! - Copyright ORBIFLY Dicembre 2007 - Disclaimer

ORBIFLY MET'MAP TEAM :

Programmazione e sviluppo : Alexandra Zaïnal
Concezione e sviluppo : Baudouin d'Aumeries
Co-Programmazione e sviluppo : Marc-Olivier Méhu
Supporto tecnico e logistico : Manuel Goepfert
Aiuto per la traduzione : Arnaldo La Scala

Contatto : metmap@orbifly.com




FONTI E CREDITI :

   NOAA